WMKE

Details ICAO WMKE (KTE)
Name Kerteh
Region Malaysia (Peninsular Malaysia)
Timezone Asia/Kuala_Lumpur (UTC+8.0)
Plans Departing 0
Arriving 4
Stats Elevation 18 ft / 5 m (AMSL)
Location 4.537223° 103.426754°
Runways 1
Magnetic Variation 0.027° E
Sunrise 2017-12-15 23:07:22 UTC / 2017-12-16 07:07:22 Local
Sunset 2017-12-16 10:58:59 UTC / 2017-12-16 18:58:59 Local
Advertisement - Login to hide

Runways

ID Width Length Bearing (true) Bearing (mag) Surface Threshold Offset Overrun Length
16 98 ft / 30 m 4,469 ft / 1,362 m 162.68° 162.65° Asphalt 0 ft / 0 m 130 ft / 40 m
34 98 ft / 30 m 4,469 ft / 1,362 m 342.68° 342.65° Asphalt 0 ft / 0 m 0 ft / 0 m

Approach Navaids

Runway Type Ident Frequency Range Bearing (true) Bearing (mag) Slope Elevation
34 Localiser IKE 108.70 MHz 18 nm / 33 km 342.74° 342.71° - 18 ft / 5 m (AMSL)
34 Glidescope IKE 108.70 MHz 10 nm / 19 km 342.68° 342.65° 3.00° 18 ft / 5 m (AMSL)

Map

Weather


0- 5 10 15 20 25 30 35+ Temperature / ° C

Clouds and Precipitation
Forecast for 2017-12-16 18:00 UTC. Updated 12 minutes ago

Ground ~20,000 ft ~40,000 ft Winds

METAR

WMKE 161500Z AUTO 06005KT 010V120 //// // 27/23 Q1012

TAF

Not found

Frequencies

Ground 121.80 MHz GND
Tower 123.30 MHz TWR
Warning: Do not use this data for real-world aviation or navigation. No guarantee of current accuracy is given.